グアム の空港の天気 - METARとTAF

グアム国際空港 ( PGUM / GUM ) - グアム ハガニア
飛行場実況気象(Metar)
観測時間11/19 22:54 ChST (11/19 12:54 UTC)
風向・風速東北東 4m/s
視程10km以上
天気現象
なし
気温27.2℃
湿度88%
気圧1011hPa
METARPGUM 191254Z 06008KT 10SM CLR 27/25 A2988 RMK AO2 SLP110 T02720250
過去の天気等 Google飛行場航空写真 Wunderground天気予報

過去48時間のMETAR

飛行場予報(TAF)
発表時間: 11/19 21:20 ChST (11/19 11:20 UTC)
予報対象時間: 19日22時 ChST ~ 21日4時 ChST
風向・風速東北東 4m/s
視程10km以上
天気現象周辺でしゅう雨
少しの雲 雲底高度 610m
20日9時 ChST から
風向・風速東北東 7m/s
視程10km以上
天気現象周辺でしゅう雨
全天の4割程度の雲 雲底高度 610m
全天の4割程度の雲 雲底高度 1,520m
20日18時 ChST から
風向・風速東北東 5m/s
視程10km以上
天気現象周辺でしゅう雨
全天の4割程度の雲 雲底高度 610m
全天の4割程度の雲 雲底高度 1,520m
PGUM 191120Z 1912/2018 06007KT P6SM VCSH FEW020
FM192300 07014KT P6SM VCSH SCT020 SCT050
FM200800 07010KT P6SM VCSH SCT020 SCT050